sensor_id;sensor_type;location;lat;lon;timestamp;temperature;humidity
5226;DHT22;2632;51.666;7.146;2023-04-15T00:00:57;7.30;99.90
5226;DHT22;2632;51.666;7.146;2023-04-15T00:03:24;7.30;99.90
5226;DHT22;2632;51.666;7.146;2023-04-15T00:05:51;7.30;99.90
5226;DHT22;2632;51.666;7.146;2023-04-15T00:08:18;7.40;99.90
5226;DHT22;2632;51.666;7.146;2023-04-15T00:10:45;7.40;99.90
5226;DHT22;2632;51.666;7.146;2023-04-15T00:13:12;7.40;99.90
5226;DHT22;2632;51.666;7.146;2023-04-15T00:15:39;7.40;99.90
5226;DHT22;2632;51.666;7.146;2023-04-15T00:18:06;7.40;99.90
5226;DHT22;2632;51.666;7.146;2023-04-15T00:20:34;7.40;99.90
5226;DHT22;2632;51.666;7.146;2023-04-15T00:23:01;7.50;99.90
5226;DHT22;2632;51.666;7.146;2023-04-15T00:25:29;7.40;99.90
5226;DHT22;2632;51.666;7.146;2023-04-15T00:27:55;7.40;99.90
5226;DHT22;2632;51.666;7.146;2023-04-15T00:30:22;7.20;99.90
5226;DHT22;2632;51.666;7.146;2023-04-15T00:32:49;7.30;99.90
5226;DHT22;2632;51.666;7.146;2023-04-15T00:35:16;7.40;99.90
5226;DHT22;2632;51.666;7.146;2023-04-15T00:37:42;7.40;99.90
5226;DHT22;2632;51.666;7.146;2023-04-15T00:40:12;7.30;99.90
5226;DHT22;2632;51.666;7.146;2023-04-15T00:42:39;7.30;99.90
5226;DHT22;2632;51.666;7.146;2023-04-15T00:45:06;7.30;99.90
5226;DHT22;2632;51.666;7.146;2023-04-15T00:47:35;7.20;99.90
5226;DHT22;2632;51.666;7.146;2023-04-15T00:50:03;7.30;99.90
5226;DHT22;2632;51.666;7.146;2023-04-15T00:52:30;7.30;99.90
5226;DHT22;2632;51.666;7.146;2023-04-15T00:54:57;7.20;99.90
5226;DHT22;2632;51.666;7.146;2023-04-15T00:57:25;7.20;99.90
5226;DHT22;2632;51.666;7.146;2023-04-15T00:59:54;7.20;99.90
5226;DHT22;2632;51.666;7.146;2023-04-15T01:02:22;7.10;99.90
5226;DHT22;2632;51.666;7.146;2023-04-15T01:04:49;7.10;99.90
5226;DHT22;2632;51.666;7.146;2023-04-15T01:07:16;7.10;99.90
5226;DHT22;2632;51.666;7.146;2023-04-15T01:09:42;7.10;99.90
5226;DHT22;2632;51.666;7.146;2023-04-15T01:12:11;7.00;99.90
5226;DHT22;2632;51.666;7.146;2023-04-15T01:14:39;7.00;99.90
5226;DHT22;2632;51.666;7.146;2023-04-15T01:17:06;7.00;99.90
5226;DHT22;2632;51.666;7.146;2023-04-15T01:19:33;7.00;99.90
5226;DHT22;2632;51.666;7.146;2023-04-15T01:21:59;6.90;99.90
5226;DHT22;2632;51.666;7.146;2023-04-15T01:24:29;6.90;99.90
5226;DHT22;2632;51.666;7.146;2023-04-15T01:26:57;6.80;99.90
5226;DHT22;2632;51.666;7.146;2023-04-15T01:29:23;6.80;99.90
5226;DHT22;2632;51.666;7.146;2023-04-15T01:31:51;6.80;99.90
5226;DHT22;2632;51.666;7.146;2023-04-15T01:34:18;6.80;99.90
5226;DHT22;2632;51.666;7.146;2023-04-15T01:36:45;6.90;99.90
5226;DHT22;2632;51.666;7.146;2023-04-15T01:39:11;7.00;99.90
5226;DHT22;2632;51.666;7.146;2023-04-15T01:41:38;7.00;99.90
5226;DHT22;2632;51.666;7.146;2023-04-15T01:44:06;7.00;99.90
5226;DHT22;2632;51.666;7.146;2023-04-15T01:46:34;6.90;99.90
5226;DHT22;2632;51.666;7.146;2023-04-15T01:49:01;6.80;99.90
5226;DHT22;2632;51.666;7.146;2023-04-15T01:51:28;6.60;99.90
5226;DHT22;2632;51.666;7.146;2023-04-15T01:53:55;6.40;99.90
5226;DHT22;2632;51.666;7.146;2023-04-15T01:56:24;6.40;99.90
5226;DHT22;2632;51.666;7.146;2023-04-15T01:58:52;6.40;99.90
5226;DHT22;2632;51.666;7.146;2023-04-15T02:01:18;6.40;99.90
5226;DHT22;2632;51.666;7.146;2023-04-15T02:03:46;6.30;99.90
5226;DHT22;2632;51.666;7.146;2023-04-15T02:06:13;6.30;99.90
5226;DHT22;2632;51.666;7.146;2023-04-15T02:08:40;6.30;99.90
5226;DHT22;2632;51.666;7.146;2023-04-15T02:11:07;6.30;99.90
5226;DHT22;2632;51.666;7.146;2023-04-15T02:13:33;6.20;99.90
5226;DHT22;2632;51.666;7.146;2023-04-15T02:16:00;6.20;99.90
5226;DHT22;2632;51.666;7.146;2023-04-15T02:18:27;6.20;99.90
5226;DHT22;2632;51.666;7.146;2023-04-15T02:20:53;6.10;99.90
5226;DHT22;2632;51.666;7.146;2023-04-15T02:23:22;6.10;99.90
5226;DHT22;2632;51.666;7.146;2023-04-15T02:25:49;6.10;99.90
5226;DHT22;2632;51.666;7.146;2023-04-15T02:28:20;6.20;99.90
5226;DHT22;2632;51.666;7.146;2023-04-15T02:30:47;6.10;99.90
5226;DHT22;2632;51.666;7.146;2023-04-15T02:33:18;6.10;99.90
5226;DHT22;2632;51.666;7.146;2023-04-15T02:35:45;6.00;99.90
5226;DHT22;2632;51.666;7.146;2023-04-15T02:38:12;6.00;99.90
5226;DHT22;2632;51.666;7.146;2023-04-15T02:40:42;5.90;99.90
5226;DHT22;2632;51.666;7.146;2023-04-15T02:43:08;5.90;99.90
5226;DHT22;2632;51.666;7.146;2023-04-15T02:45:35;5.90;99.90
5226;DHT22;2632;51.666;7.146;2023-04-15T02:48:01;5.90;99.90
5226;DHT22;2632;51.666;7.146;2023-04-15T02:50:31;5.90;99.90
5226;DHT22;2632;51.666;7.146;2023-04-15T02:52:58;5.80;99.90
5226;DHT22;2632;51.666;7.146;2023-04-15T02:55:26;5.80;99.90
5226;DHT22;2632;51.666;7.146;2023-04-15T02:57:53;5.80;99.90
5226;DHT22;2632;51.666;7.146;2023-04-15T03:00:20;5.80;99.90
5226;DHT22;2632;51.666;7.146;2023-04-15T03:02:47;5.80;99.90
5226;DHT22;2632;51.666;7.146;2023-04-15T03:05:15;5.80;99.90
5226;DHT22;2632;51.666;7.146;2023-04-15T03:07:42;6.00;99.90
5226;DHT22;2632;51.666;7.146;2023-04-15T03:10:08;6.00;99.90
5226;DHT22;2632;51.666;7.146;2023-04-15T03:12:36;6.00;99.90
5226;DHT22;2632;51.666;7.146;2023-04-15T03:15:02;6.10;99.90
5226;DHT22;2632;51.666;7.146;2023-04-15T03:17:29;6.10;99.90
5226;DHT22;2632;51.666;7.146;2023-04-15T03:19:56;6.00;99.90
5226;DHT22;2632;51.666;7.146;2023-04-15T03:22:24;6.10;99.90
5226;DHT22;2632;51.666;7.146;2023-04-15T03:24:52;6.10;99.90
5226;DHT22;2632;51.666;7.146;2023-04-15T03:27:18;5.90;99.90
5226;DHT22;2632;51.666;7.146;2023-04-15T03:29:45;5.80;99.90
5226;DHT22;2632;51.666;7.146;2023-04-15T03:32:11;5.80;99.90
5226;DHT22;2632;51.666;7.146;2023-04-15T03:34:38;5.70;99.90
5226;DHT22;2632;51.666;7.146;2023-04-15T03:37:04;5.60;99.90
5226;DHT22;2632;51.666;7.146;2023-04-15T03:39:31;5.60;99.90
5226;DHT22;2632;51.666;7.146;2023-04-15T03:41:58;5.50;99.90
5226;DHT22;2632;51.666;7.146;2023-04-15T03:44:28;5.50;99.90
5226;DHT22;2632;51.666;7.146;2023-04-15T03:46:54;5.50;99.90
5226;DHT22;2632;51.666;7.146;2023-04-15T03:49:21;5.40;99.90
5226;DHT22;2632;51.666;7.146;2023-04-15T03:51:48;5.40;99.90
5226;DHT22;2632;51.666;7.146;2023-04-15T03:54:15;5.30;99.90
5226;DHT22;2632;51.666;7.146;2023-04-15T03:56:42;5.30;99.90
5226;DHT22;2632;51.666;7.146;2023-04-15T03:59:08;5.30;99.90
5226;DHT22;2632;51.666;7.146;2023-04-15T04:01:35;5.30;99.90
5226;DHT22;2632;51.666;7.146;2023-04-15T04:04:01;5.20;99.90
5226;DHT22;2632;51.666;7.146;2023-04-15T04:06:28;5.10;99.90
5226;DHT22;2632;51.666;7.146;2023-04-15T04:08:55;5.10;99.90
5226;DHT22;2632;51.666;7.146;2023-04-15T04:11:22;5.10;99.90
5226;DHT22;2632;51.666;7.146;2023-04-15T04:13:48;5.10;99.90
5226;DHT22;2632;51.666;7.146;2023-04-15T04:16:15;5.10;99.90
5226;DHT22;2632;51.666;7.146;2023-04-15T04:18:41;5.00;99.90
5226;DHT22;2632;51.666;7.146;2023-04-15T04:21:08;5.00;99.90
5226;DHT22;2632;51.666;7.146;2023-04-15T04:23:35;5.00;99.90
5226;DHT22;2632;51.666;7.146;2023-04-15T04:26:02;5.00;99.90
5226;DHT22;2632;51.666;7.146;2023-04-15T04:28:28;4.90;99.90
5226;DHT22;2632;51.666;7.146;2023-04-15T04:30:55;4.90;99.90
5226;DHT22;2632;51.666;7.146;2023-04-15T04:33:22;4.80;99.90
5226;DHT22;2632;51.666;7.146;2023-04-15T04:35:48;4.80;99.90
5226;DHT22;2632;51.666;7.146;2023-04-15T04:38:15;4.70;99.90
5226;DHT22;2632;51.666;7.146;2023-04-15T04:40:41;4.80;99.90
5226;DHT22;2632;51.666;7.146;2023-04-15T04:43:08;4.80;99.90
5226;DHT22;2632;51.666;7.146;2023-04-15T04:45:35;4.80;99.90
5226;DHT22;2632;51.666;7.146;2023-04-15T04:48:02;4.80;99.90
5226;DHT22;2632;51.666;7.146;2023-04-15T04:50:33;4.80;99.90
5226;DHT22;2632;51.666;7.146;2023-04-15T04:53:00;4.80;99.90
5226;DHT22;2632;51.666;7.146;2023-04-15T04:55:27;4.80;99.90
5226;DHT22;2632;51.666;7.146;2023-04-15T04:57:54;4.80;99.90
5226;DHT22;2632;51.666;7.146;2023-04-15T05:00:20;4.80;99.90
5226;DHT22;2632;51.666;7.146;2023-04-15T05:02:48;4.80;99.90
5226;DHT22;2632;51.666;7.146;2023-04-15T05:05:15;4.80;99.90
5226;DHT22;2632;51.666;7.146;2023-04-15T05:07:41;4.80;99.90
5226;DHT22;2632;51.666;7.146;2023-04-15T05:10:08;4.80;99.90
5226;DHT22;2632;51.666;7.146;2023-04-15T05:12:35;4.90;99.90
5226;DHT22;2632;51.666;7.146;2023-04-15T05:15:05;5.00;99.90
5226;DHT22;2632;51.666;7.146;2023-04-15T05:17:31;5.00;99.90
5226;DHT22;2632;51.666;7.146;2023-04-15T05:20:01;5.10;99.90
5226;DHT22;2632;51.666;7.146;2023-04-15T05:22:28;5.20;99.90
5226;DHT22;2632;51.666;7.146;2023-04-15T05:24:55;5.20;99.90
5226;DHT22;2632;51.666;7.146;2023-04-15T05:27:21;5.20;99.90
5226;DHT22;2632;51.666;7.146;2023-04-15T05:29:49;5.30;99.90
5226;DHT22;2632;51.666;7.146;2023-04-15T05:32:16;5.40;99.90
5226;DHT22;2632;51.666;7.146;2023-04-15T05:34:42;5.50;99.90
5226;DHT22;2632;51.666;7.146;2023-04-15T05:37:09;5.60;99.90
5226;DHT22;2632;51.666;7.146;2023-04-15T05:39:36;5.80;99.90
5226;DHT22;2632;51.666;7.146;2023-04-15T05:42:03;5.80;99.90
5226;DHT22;2632;51.666;7.146;2023-04-15T05:44:31;5.90;99.90
5226;DHT22;2632;51.666;7.146;2023-04-15T05:46:58;5.90;99.90
5226;DHT22;2632;51.666;7.146;2023-04-15T05:49:25;6.00;99.90
5226;DHT22;2632;51.666;7.146;2023-04-15T05:51:51;6.10;99.90
5226;DHT22;2632;51.666;7.146;2023-04-15T05:54:18;6.10;99.90
5226;DHT22;2632;51.666;7.146;2023-04-15T05:56:45;6.20;99.90
5226;DHT22;2632;51.666;7.146;2023-04-15T05:59:12;6.30;99.90
5226;DHT22;2632;51.666;7.146;2023-04-15T06:01:39;6.40;99.90
5226;DHT22;2632;51.666;7.146;2023-04-15T06:04:05;6.60;99.90
5226;DHT22;2632;51.666;7.146;2023-04-15T06:06:32;6.60;99.90
5226;DHT22;2632;51.666;7.146;2023-04-15T06:09:00;6.90;99.90
5226;DHT22;2632;51.666;7.146;2023-04-15T06:11:27;7.00;99.90
5226;DHT22;2632;51.666;7.146;2023-04-15T06:13:53;7.20;99.90
5226;DHT22;2632;51.666;7.146;2023-04-15T06:16:20;7.30;99.90
5226;DHT22;2632;51.666;7.146;2023-04-15T06:18:47;7.50;99.90
5226;DHT22;2632;51.666;7.146;2023-04-15T06:21:14;7.80;99.90
5226;DHT22;2632;51.666;7.146;2023-04-15T06:23:41;7.90;99.90
5226;DHT22;2632;51.666;7.146;2023-04-15T06:26:08;8.10;99.90
5226;DHT22;2632;51.666;7.146;2023-04-15T06:28:34;8.10;99.90
5226;DHT22;2632;51.666;7.146;2023-04-15T06:31:03;8.30;99.90
5226;DHT22;2632;51.666;7.146;2023-04-15T06:33:30;8.50;99.90
5226;DHT22;2632;51.666;7.146;2023-04-15T06:35:58;8.70;99.90
5226;DHT22;2632;51.666;7.146;2023-04-15T06:38:24;8.90;99.90
5226;DHT22;2632;51.666;7.146;2023-04-15T06:40:51;9.00;99.90
5226;DHT22;2632;51.666;7.146;2023-04-15T06:43:18;9.10;99.90
5226;DHT22;2632;51.666;7.146;2023-04-15T06:45:45;9.20;99.90
5226;DHT22;2632;51.666;7.146;2023-04-15T06:48:12;9.20;99.90
5226;DHT22;2632;51.666;7.146;2023-04-15T06:50:39;9.30;99.90
5226;DHT22;2632;51.666;7.146;2023-04-15T06:53:06;9.40;99.90
5226;DHT22;2632;51.666;7.146;2023-04-15T06:55:33;9.50;99.90
5226;DHT22;2632;51.666;7.146;2023-04-15T06:57:59;9.40;99.90
5226;DHT22;2632;51.666;7.146;2023-04-15T07:00:26;9.60;99.90
5226;DHT22;2632;51.666;7.146;2023-04-15T07:02:54;9.70;99.90
5226;DHT22;2632;51.666;7.146;2023-04-15T07:05:22;9.70;99.90
5226;DHT22;2632;51.666;7.146;2023-04-15T07:07:48;9.80;99.90
5226;DHT22;2632;51.666;7.146;2023-04-15T07:10:15;9.90;99.90
5226;DHT22;2632;51.666;7.146;2023-04-15T07:12:42;9.90;99.90
5226;DHT22;2632;51.666;7.146;2023-04-15T07:15:09;10.00;99.90
5226;DHT22;2632;51.666;7.146;2023-04-15T07:17:36;10.10;99.90
5226;DHT22;2632;51.666;7.146;2023-04-15T07:20:03;10.00;99.90
5226;DHT22;2632;51.666;7.146;2023-04-15T07:22:30;10.20;99.90
5226;DHT22;2632;51.666;7.146;2023-04-15T07:24:57;10.20;99.90
5226;DHT22;2632;51.666;7.146;2023-04-15T07:27:23;10.30;99.90
5226;DHT22;2632;51.666;7.146;2023-04-15T07:29:50;10.30;99.90
5226;DHT22;2632;51.666;7.146;2023-04-15T07:32:18;10.50;99.90
5226;DHT22;2632;51.666;7.146;2023-04-15T07:34:45;10.70;99.90
5226;DHT22;2632;51.666;7.146;2023-04-15T07:37:11;10.70;99.90
5226;DHT22;2632;51.666;7.146;2023-04-15T07:39:39;10.70;99.90
5226;DHT22;2632;51.666;7.146;2023-04-15T07:42:05;10.70;99.90
5226;DHT22;2632;51.666;7.146;2023-04-15T07:44:32;10.90;99.90
5226;DHT22;2632;51.666;7.146;2023-04-15T07:47:01;11.10;99.90
5226;DHT22;2632;51.666;7.146;2023-04-15T07:49:27;11.20;99.90
5226;DHT22;2632;51.666;7.146;2023-04-15T07:51:54;11.10;99.90
5226;DHT22;2632;51.666;7.146;2023-04-15T07:54:23;11.30;99.90
5226;DHT22;2632;51.666;7.146;2023-04-15T07:56:49;11.50;99.90
5226;DHT22;2632;51.666;7.146;2023-04-15T07:59:16;11.60;99.90
5226;DHT22;2632;51.666;7.146;2023-04-15T08:01:43;11.90;99.90
5226;DHT22;2632;51.666;7.146;2023-04-15T08:04:12;11.90;99.90
5226;DHT22;2632;51.666;7.146;2023-04-15T08:06:39;11.90;99.90
5226;DHT22;2632;51.666;7.146;2023-04-15T08:09:05;12.10;99.90
5226;DHT22;2632;51.666;7.146;2023-04-15T08:11:33;12.20;99.80
5226;DHT22;2632;51.666;7.146;2023-04-15T08:14:00;12.20;99.40
5226;DHT22;2632;51.666;7.146;2023-04-15T08:16:28;12.20;99.70
5226;DHT22;2632;51.666;7.146;2023-04-15T08:18:56;12.20;99.00
5226;DHT22;2632;51.666;7.146;2023-04-15T08:21:23;12.30;99.60
5226;DHT22;2632;51.666;7.146;2023-04-15T08:23:51;12.50;98.40
5226;DHT22;2632;51.666;7.146;2023-04-15T08:26:20;13.30;98.00
5226;DHT22;2632;51.666;7.146;2023-04-15T08:28:47;15.00;95.40
5226;DHT22;2632;51.666;7.146;2023-04-15T08:31:15;16.20;90.40
5226;DHT22;2632;51.666;7.146;2023-04-15T08:33:42;16.60;76.70
5226;DHT22;2632;51.666;7.146;2023-04-15T08:36:09;17.00;72.90
5226;DHT22;2632;51.666;7.146;2023-04-15T08:38:36;17.40;72.30
5226;DHT22;2632;51.666;7.146;2023-04-15T08:41:08;16.90;71.50
5226;DHT22;2632;51.666;7.146;2023-04-15T08:43:48;15.90;76.70
5226;DHT22;2632;51.666;7.146;2023-04-15T08:46:17;14.60;84.90
5226;DHT22;2632;51.666;7.146;2023-04-15T08:48:46;13.70;93.30
5226;DHT22;2632;51.666;7.146;2023-04-15T08:51:13;13.20;94.70
5226;DHT22;2632;51.666;7.146;2023-04-15T08:53:45;13.90;95.00
5226;DHT22;2632;51.666;7.146;2023-04-15T08:56:14;14.70;92.70
5226;DHT22;2632;51.666;7.146;2023-04-15T08:58:45;15.00;92.00
5226;DHT22;2632;51.666;7.146;2023-04-15T09:01:12;15.20;91.00
5226;DHT22;2632;51.666;7.146;2023-04-15T09:03:39;14.70;90.90
5226;DHT22;2632;51.666;7.146;2023-04-15T09:06:07;14.60;91.90
5226;DHT22;2632;51.666;7.146;2023-04-15T09:08:34;14.10;92.80
5226;DHT22;2632;51.666;7.146;2023-04-15T09:11:02;13.80;94.40
5226;DHT22;2632;51.666;7.146;2023-04-15T09:13:29;13.80;94.50
5226;DHT22;2632;51.666;7.146;2023-04-15T09:15:56;13.70;95.70
5226;DHT22;2632;51.666;7.146;2023-04-15T09:18:34;13.50;96.00
5226;DHT22;2632;51.666;7.146;2023-04-15T09:21:14;13.40;97.20
5226;DHT22;2632;51.666;7.146;2023-04-15T09:23:57;13.20;97.30
5226;DHT22;2632;51.666;7.146;2023-04-15T09:26:34;13.20;97.60
5226;DHT22;2632;51.666;7.146;2023-04-15T09:29:09;13.10;97.40
5226;DHT22;2632;51.666;7.146;2023-04-15T09:31:36;13.20;97.80
5226;DHT22;2632;51.666;7.146;2023-04-15T09:34:04;13.30;97.60
5226;DHT22;2632;51.666;7.146;2023-04-15T09:39:15;12.90;98.70
5226;DHT22;2632;51.666;7.146;2023-04-15T09:41:42;12.90;98.50
5226;DHT22;2632;51.666;7.146;2023-04-15T09:44:23;12.70;98.50
5226;DHT22;2632;51.666;7.146;2023-04-15T09:46:50;12.40;99.50
5226;DHT22;2632;51.666;7.146;2023-04-15T09:49:17;12.40;99.60
5226;DHT22;2632;51.666;7.146;2023-04-15T09:51:43;12.40;99.90
5226;DHT22;2632;51.666;7.146;2023-04-15T09:54:34;12.00;99.90
5226;DHT22;2632;51.666;7.146;2023-04-15T09:57:08;12.40;99.90
5226;DHT22;2632;51.666;7.146;2023-04-15T09:59:35;12.60;99.60
5226;DHT22;2632;51.666;7.146;2023-04-15T10:02:04;13.10;99.30
5226;DHT22;2632;51.666;7.146;2023-04-15T10:04:34;13.10;98.90
5226;DHT22;2632;51.666;7.146;2023-04-15T10:07:04;13.30;98.90
5226;DHT22;2632;51.666;7.146;2023-04-15T10:09:31;13.10;98.40
5226;DHT22;2632;51.666;7.146;2023-04-15T10:11:59;13.00;99.00
5226;DHT22;2632;51.666;7.146;2023-04-15T10:14:27;13.00;99.60
5226;DHT22;2632;51.666;7.146;2023-04-15T10:17:03;13.10;98.90
5226;DHT22;2632;51.666;7.146;2023-04-15T10:19:35;13.10;99.80
5226;DHT22;2632;51.666;7.146;2023-04-15T10:22:02;13.00;98.70
5226;DHT22;2632;51.666;7.146;2023-04-15T10:24:31;12.80;98.60
5226;DHT22;2632;51.666;7.146;2023-04-15T10:26:58;12.60;99.40
5226;DHT22;2632;51.666;7.146;2023-04-15T10:29:25;12.50;99.90
5226;DHT22;2632;51.666;7.146;2023-04-15T10:31:54;12.40;99.30
5226;DHT22;2632;51.666;7.146;2023-04-15T10:34:23;12.40;99.90
5226;DHT22;2632;51.666;7.146;2023-04-15T10:36:50;12.60;99.90
5226;DHT22;2632;51.666;7.146;2023-04-15T10:42:09;12.10;99.90
5226;DHT22;2632;51.666;7.146;2023-04-15T10:44:37;12.10;99.90
5226;DHT22;2632;51.666;7.146;2023-04-15T10:47:17;12.00;99.90
5226;DHT22;2632;51.666;7.146;2023-04-15T10:50:00;11.90;99.90
5226;DHT22;2632;51.666;7.146;2023-04-15T10:52:27;12.00;99.90
5226;DHT22;2632;51.666;7.146;2023-04-15T10:55:12;12.00;99.90
5226;DHT22;2632;51.666;7.146;2023-04-15T10:57:41;11.90;99.90
5226;DHT22;2632;51.666;7.146;2023-04-15T11:00:11;11.80;99.90
5226;DHT22;2632;51.666;7.146;2023-04-15T11:02:44;11.80;99.90
5226;DHT22;2632;51.666;7.146;2023-04-15T11:05:12;11.70;99.90
5226;DHT22;2632;51.666;7.146;2023-04-15T11:12:39;11.80;99.90
5226;DHT22;2632;51.666;7.146;2023-04-15T11:15:45;11.60;99.90
5226;DHT22;2632;51.666;7.146;2023-04-15T11:18:19;11.40;99.90
5226;DHT22;2632;51.666;7.146;2023-04-15T11:23:25;11.60;99.90
5226;DHT22;2632;51.666;7.146;2023-04-15T11:25:54;11.60;99.90
5226;DHT22;2632;51.666;7.146;2023-04-15T11:28:28;11.50;99.90
5226;DHT22;2632;51.666;7.146;2023-04-15T11:30:55;11.50;99.90
5226;DHT22;2632;51.666;7.146;2023-04-15T11:33:23;11.50;99.90
5226;DHT22;2632;51.666;7.146;2023-04-15T11:35:51;11.50;99.90
5226;DHT22;2632;51.666;7.146;2023-04-15T11:38:19;11.40;99.90
5226;DHT22;2632;51.666;7.146;2023-04-15T11:40:47;11.40;99.90
5226;DHT22;2632;51.666;7.146;2023-04-15T11:43:20;11.40;99.90
5226;DHT22;2632;51.666;7.146;2023-04-15T11:48:22;11.40;99.90
5226;DHT22;2632;51.666;7.146;2023-04-15T11:50:54;11.40;99.90
5226;DHT22;2632;51.666;7.146;2023-04-15T11:53:22;11.40;99.90
5226;DHT22;2632;51.666;7.146;2023-04-15T11:55:52;11.10;99.90
5226;DHT22;2632;51.666;7.146;2023-04-15T11:58:21;11.10;99.90
5226;DHT22;2632;51.666;7.146;2023-04-15T12:00:59;11.10;99.90
5226;DHT22;2632;51.666;7.146;2023-04-15T12:03:30;11.10;99.90
5226;DHT22;2632;51.666;7.146;2023-04-15T12:06:20;11.10;99.90
5226;DHT22;2632;51.666;7.146;2023-04-15T12:11:15;11.30;99.90
5226;DHT22;2632;51.666;7.146;2023-04-15T12:13:46;11.20;99.90
5226;DHT22;2632;51.666;7.146;2023-04-15T12:16:20;11.30;99.90
5226;DHT22;2632;51.666;7.146;2023-04-15T12:18:58;11.30;99.90
5226;DHT22;2632;51.666;7.146;2023-04-15T12:21:26;11.40;99.90
5226;DHT22;2632;51.666;7.146;2023-04-15T12:23:55;11.40;99.90
5226;DHT22;2632;51.666;7.146;2023-04-15T12:26:45;11.80;99.90
5226;DHT22;2632;51.666;7.146;2023-04-15T12:29:14;11.70;99.90
5226;DHT22;2632;51.666;7.146;2023-04-15T12:31:53;11.60;99.90
5226;DHT22;2632;51.666;7.146;2023-04-15T12:34:31;11.80;99.90
5226;DHT22;2632;51.666;7.146;2023-04-15T12:37:01;11.80;99.90
5226;DHT22;2632;51.666;7.146;2023-04-15T12:39:34;11.70;99.90
5226;DHT22;2632;51.666;7.146;2023-04-15T12:42:03;11.70;99.90
5226;DHT22;2632;51.666;7.146;2023-04-15T12:44:29;11.60;99.90
5226;DHT22;2632;51.666;7.146;2023-04-15T12:46:56;11.70;99.90
5226;DHT22;2632;51.666;7.146;2023-04-15T12:49:24;11.70;99.90
5226;DHT22;2632;51.666;7.146;2023-04-15T12:51:53;11.60;99.90
5226;DHT22;2632;51.666;7.146;2023-04-15T12:54:21;11.70;99.90
5226;DHT22;2632;51.666;7.146;2023-04-15T12:56:48;11.60;99.90
5226;DHT22;2632;51.666;7.146;2023-04-15T12:59:16;11.60;99.90
5226;DHT22;2632;51.666;7.146;2023-04-15T13:01:45;11.60;99.90
5226;DHT22;2632;51.666;7.146;2023-04-15T13:04:12;11.60;99.90
5226;DHT22;2632;51.666;7.146;2023-04-15T13:06:38;11.60;99.90
5226;DHT22;2632;51.666;7.146;2023-04-15T13:09:05;11.60;99.90
5226;DHT22;2632;51.666;7.146;2023-04-15T13:11:33;11.60;99.90
5226;DHT22;2632;51.666;7.146;2023-04-15T13:14:00;11.70;99.90
5226;DHT22;2632;51.666;7.146;2023-04-15T13:16:28;11.70;99.90
5226;DHT22;2632;51.666;7.146;2023-04-15T13:18:55;11.70;99.90
5226;DHT22;2632;51.666;7.146;2023-04-15T13:21:21;11.60;99.90
5226;DHT22;2632;51.666;7.146;2023-04-15T13:23:48;11.60;99.90
5226;DHT22;2632;51.666;7.146;2023-04-15T13:26:17;11.60;99.90
5226;DHT22;2632;51.666;7.146;2023-04-15T13:28:44;11.50;99.90
5226;DHT22;2632;51.666;7.146;2023-04-15T13:31:11;11.60;99.90
5226;DHT22;2632;51.666;7.146;2023-04-15T13:33:38;11.60;99.90
5226;DHT22;2632;51.666;7.146;2023-04-15T13:36:05;11.60;99.90
5226;DHT22;2632;51.666;7.146;2023-04-15T13:38:32;11.60;99.90
5226;DHT22;2632;51.666;7.146;2023-04-15T13:40:58;11.50;99.90
5226;DHT22;2632;51.666;7.146;2023-04-15T13:43:25;11.40;99.90
5226;DHT22;2632;51.666;7.146;2023-04-15T13:45:52;11.50;99.90
5226;DHT22;2632;51.666;7.146;2023-04-15T13:48:18;11.50;99.90
5226;DHT22;2632;51.666;7.146;2023-04-15T13:50:45;11.50;99.90
5226;DHT22;2632;51.666;7.146;2023-04-15T13:53:12;11.50;99.90
5226;DHT22;2632;51.666;7.146;2023-04-15T13:55:38;11.30;99.90
5226;DHT22;2632;51.666;7.146;2023-04-15T13:58:09;11.40;99.90
5226;DHT22;2632;51.666;7.146;2023-04-15T14:00:36;11.40;99.90
5226;DHT22;2632;51.666;7.146;2023-04-15T14:03:03;11.30;99.90
5226;DHT22;2632;51.666;7.146;2023-04-15T14:05:31;11.20;99.90
5226;DHT22;2632;51.666;7.146;2023-04-15T14:07:59;11.00;99.90
5226;DHT22;2632;51.666;7.146;2023-04-15T14:10:25;10.90;99.90
5226;DHT22;2632;51.666;7.146;2023-04-15T14:12:52;10.80;99.90
5226;DHT22;2632;51.666;7.146;2023-04-15T14:15:19;10.80;99.90
5226;DHT22;2632;51.666;7.146;2023-04-15T14:17:46;11.00;99.90
5226;DHT22;2632;51.666;7.146;2023-04-15T14:20:13;10.90;99.90
5226;DHT22;2632;51.666;7.146;2023-04-15T14:22:42;10.90;99.90
5226;DHT22;2632;51.666;7.146;2023-04-15T14:25:09;11.10;99.90
5226;DHT22;2632;51.666;7.146;2023-04-15T14:27:45;11.00;99.90
5226;DHT22;2632;51.666;7.146;2023-04-15T14:30:12;11.00;99.90
5226;DHT22;2632;51.666;7.146;2023-04-15T14:32:39;10.80;99.90
5226;DHT22;2632;51.666;7.146;2023-04-15T14:35:05;10.80;99.90
5226;DHT22;2632;51.666;7.146;2023-04-15T14:37:32;10.80;99.90
5226;DHT22;2632;51.666;7.146;2023-04-15T14:39:59;10.70;99.90
5226;DHT22;2632;51.666;7.146;2023-04-15T14:42:25;10.60;99.90
5226;DHT22;2632;51.666;7.146;2023-04-15T14:44:52;10.60;99.90
5226;DHT22;2632;51.666;7.146;2023-04-15T14:47:18;10.60;99.90
5226;DHT22;2632;51.666;7.146;2023-04-15T14:49:45;10.50;99.90
5226;DHT22;2632;51.666;7.146;2023-04-15T14:52:13;10.40;99.90
5226;DHT22;2632;51.666;7.146;2023-04-15T14:54:39;10.40;99.90
5226;DHT22;2632;51.666;7.146;2023-04-15T14:57:06;10.40;99.90
5226;DHT22;2632;51.666;7.146;2023-04-15T14:59:34;10.40;99.90
5226;DHT22;2632;51.666;7.146;2023-04-15T15:02:00;10.40;99.90
5226;DHT22;2632;51.666;7.146;2023-04-15T15:04:28;10.40;99.90
5226;DHT22;2632;51.666;7.146;2023-04-15T15:06:54;10.30;99.90
5226;DHT22;2632;51.666;7.146;2023-04-15T15:09:21;10.30;99.90
5226;DHT22;2632;51.666;7.146;2023-04-15T15:11:49;10.20;99.90
5226;DHT22;2632;51.666;7.146;2023-04-15T15:14:16;10.20;99.90
5226;DHT22;2632;51.666;7.146;2023-04-15T15:16:42;10.20;99.90
5226;DHT22;2632;51.666;7.146;2023-04-15T15:19:09;10.10;99.90
5226;DHT22;2632;51.666;7.146;2023-04-15T15:21:36;10.20;99.90
5226;DHT22;2632;51.666;7.146;2023-04-15T15:24:03;10.20;99.90
5226;DHT22;2632;51.666;7.146;2023-04-15T15:26:29;10.20;99.90
5226;DHT22;2632;51.666;7.146;2023-04-15T15:28:56;10.20;99.90
5226;DHT22;2632;51.666;7.146;2023-04-15T15:31:23;10.20;99.90
5226;DHT22;2632;51.666;7.146;2023-04-15T15:33:50;10.20;99.90
5226;DHT22;2632;51.666;7.146;2023-04-15T15:36:18;10.20;99.90
5226;DHT22;2632;51.666;7.146;2023-04-15T15:38:44;10.20;99.90
5226;DHT22;2632;51.666;7.146;2023-04-15T15:41:11;10.10;99.90
5226;DHT22;2632;51.666;7.146;2023-04-15T15:43:38;10.10;99.90
5226;DHT22;2632;51.666;7.146;2023-04-15T15:46:04;10.00;99.90
5226;DHT22;2632;51.666;7.146;2023-04-15T15:48:31;10.00;99.90
5226;DHT22;2632;51.666;7.146;2023-04-15T15:50:58;10.10;99.90
5226;DHT22;2632;51.666;7.146;2023-04-15T15:53:24;10.00;99.90
5226;DHT22;2632;51.666;7.146;2023-04-15T15:55:51;10.00;99.90
5226;DHT22;2632;51.666;7.146;2023-04-15T15:58:19;10.00;99.90
5226;DHT22;2632;51.666;7.146;2023-04-15T16:00:46;9.90;99.90
5226;DHT22;2632;51.666;7.146;2023-04-15T16:03:14;9.90;99.90
5226;DHT22;2632;51.666;7.146;2023-04-15T16:05:41;9.90;99.90
5226;DHT22;2632;51.666;7.146;2023-04-15T16:08:07;9.90;99.90
5226;DHT22;2632;51.666;7.146;2023-04-15T16:10:34;9.80;99.90
5226;DHT22;2632;51.666;7.146;2023-04-15T16:13:01;9.80;99.90
5226;DHT22;2632;51.666;7.146;2023-04-15T16:15:28;9.70;99.90
5226;DHT22;2632;51.666;7.146;2023-04-15T16:17:55;9.70;99.90
5226;DHT22;2632;51.666;7.146;2023-04-15T16:20:22;9.70;99.90
5226;DHT22;2632;51.666;7.146;2023-04-15T16:22:48;9.70;99.90
5226;DHT22;2632;51.666;7.146;2023-04-15T16:25:16;9.60;99.90
5226;DHT22;2632;51.666;7.146;2023-04-15T16:27:42;9.60;99.90
5226;DHT22;2632;51.666;7.146;2023-04-15T16:30:26;9.60;99.90
5226;DHT22;2632;51.666;7.146;2023-04-15T16:32:55;9.50;99.90